createdAt,value
2022-11-28T00:00:21.037Z,95299.63
2022-11-28T00:01:25.345Z,95299.28
2022-11-28T00:02:22.205Z,95304.16
2022-11-28T00:03:19.195Z,94947.97
2022-11-28T00:04:16.269Z,95294.34
2022-11-28T00:05:13.381Z,95309.00
2022-11-28T00:06:10.627Z,95291.78
2022-11-28T00:07:07.653Z,95326.53
2022-11-28T00:08:04.859Z,95185.97
2022-11-28T00:09:01.634Z,95335.16
2022-11-28T00:09:58.404Z,95269.00
2022-11-28T00:10:55.182Z,95301.22
2022-11-28T00:11:52.129Z,95278.22
2022-11-28T00:12:48.887Z,95242.97
2022-11-28T00:13:47.056Z,95247.09
2022-11-28T00:14:44.026Z,95298.69
2022-11-28T00:15:41.145Z,95329.34
2022-11-28T00:16:38.076Z,95194.31
2022-11-28T00:17:34.849Z,95312.84
2022-11-28T00:18:32.659Z,95068.78
2022-11-28T00:19:29.509Z,95266.44
2022-11-28T00:20:26.243Z,95289.53
2022-11-28T00:21:23.502Z,95308.88
2022-11-28T00:22:20.498Z,95214.56
2022-11-28T00:23:17.377Z,95313.34
2022-11-28T00:24:14.183Z,95316.78
2022-11-28T00:25:11.003Z,95299.97
2022-11-28T00:26:13.725Z,95284.50
2022-11-28T00:27:10.572Z,95187.44
2022-11-28T00:28:07.346Z,95299.97
2022-11-28T00:29:06.092Z,95233.38
2022-11-28T00:30:03.079Z,95060.47
2022-11-28T00:31:00.215Z,95298.91
2022-11-28T00:31:56.965Z,95169.94
2022-11-28T00:32:53.730Z,95329.25
2022-11-28T00:33:51.802Z,95310.00
2022-11-28T00:34:48.670Z,95216.84
2022-11-28T00:35:45.471Z,95225.41
2022-11-28T00:36:45.456Z,95287.38
2022-11-28T00:37:42.174Z,95290.78
2022-11-28T00:38:40.405Z,95319.66
2022-11-28T00:39:37.219Z,95085.41
2022-11-28T00:40:34.087Z,95296.09
2022-11-28T00:41:33.939Z,95279.84
2022-11-28T00:42:30.726Z,95251.16
2022-11-28T00:43:27.989Z,95302.06
2022-11-28T00:44:24.861Z,95298.63
2022-11-28T00:45:21.717Z,95314.44
2022-11-28T00:46:20.166Z,95290.28
2022-11-28T00:47:16.964Z,95224.59
2022-11-28T00:48:13.647Z,95296.38
2022-11-28T00:49:10.583Z,95260.06
2022-11-28T00:50:07.907Z,95261.16
2022-11-28T00:51:10.720Z,95232.75
2022-11-28T00:52:07.907Z,95300.91
2022-11-28T00:53:04.707Z,95299.28
2022-11-28T00:54:05.887Z,95288.44
2022-11-28T00:55:02.742Z,95296.13
2022-11-28T00:55:59.556Z,95321.50
2022-11-28T00:56:56.339Z,95292.47
2022-11-28T00:57:55.311Z,95321.69
2022-11-28T00:58:52.824Z,95240.78
2022-11-28T00:59:49.647Z,95284.31
2022-11-28T01:00:46.418Z,95147.66
2022-11-28T01:01:44.328Z,95205.69
2022-11-28T01:02:41.303Z,95285.97
2022-11-28T01:03:39.463Z,95259.72
2022-11-28T01:04:36.187Z,95259.44
2022-11-28T01:05:32.930Z,95208.75
2022-11-28T01:06:33.825Z,95267.84
2022-11-28T01:07:33.373Z,95280.03
2022-11-28T01:08:30.215Z,95251.56
2022-11-28T01:09:27.032Z,95220.06
2022-11-28T01:10:23.893Z,95254.28
2022-11-28T01:11:21.754Z,95245.19
2022-11-28T01:12:18.452Z,95278.84
2022-11-28T01:13:15.212Z,95281.47
2022-11-28T01:14:13.494Z,95278.97
2022-11-28T01:15:12.997Z,95289.94
2022-11-28T01:16:10.776Z,95276.44
2022-11-28T01:17:07.645Z,95092.41
2022-11-28T01:18:04.598Z,95055.31
2022-11-28T01:19:01.547Z,95286.41
2022-11-28T01:19:58.359Z,95286.63
2022-11-28T01:20:55.063Z,95291.44
2022-11-28T01:21:51.834Z,95299.44
2022-11-28T01:22:48.698Z,95304.28
2022-11-28T01:23:45.808Z,95313.63
2022-11-28T01:24:42.805Z,95253.72
2022-11-28T01:25:39.818Z,95271.44
2022-11-28T01:26:39.563Z,95287.09
2022-11-28T01:27:36.324Z,95258.75
2022-11-28T01:28:34.287Z,95257.78
2022-11-28T01:29:30.974Z,95288.63
2022-11-28T01:30:28.402Z,95271.69
2022-11-28T01:31:28.127Z,95198.91
2022-11-28T01:32:24.952Z,95305.72
2022-11-28T01:33:21.686Z,95120.09
2022-11-28T01:34:19.167Z,95295.72
2022-11-28T01:35:16.125Z,95272.91
2022-11-28T01:36:14.638Z,95295.41
2022-11-28T01:37:11.518Z,95266.56
2022-11-28T01:38:08.315Z,95326.94
2022-11-28T01:39:05.167Z,95279.09
2022-11-28T01:40:02.011Z,95212.47
2022-11-28T01:40:59.014Z,95276.38
2022-11-28T01:41:55.785Z,95270.75
2022-11-28T01:42:52.570Z,95278.97
2022-11-28T01:44:06.890Z,95263.78
2022-11-28T01:45:23.234Z,95257.53
2022-11-28T01:46:20.022Z,95277.69
2022-11-28T01:47:23.823Z,95198.13
2022-11-28T01:48:29.326Z,95251.84
2022-11-28T01:49:34.778Z,95064.06
2022-11-28T01:50:35.110Z,95213.56
2022-11-28T01:51:33.625Z,95158.63
2022-11-28T01:52:30.501Z,95179.66
2022-11-28T01:53:30.613Z,95195.53
2022-11-28T01:54:31.253Z,95253.88
2022-11-28T01:55:33.570Z,95252.31
2022-11-28T01:56:58.820Z,95108.19
2022-11-28T01:57:56.391Z,95278.38
2022-11-28T01:59:02.017Z,95242.34
2022-11-28T02:00:09.111Z,95229.69
2022-11-28T02:01:07.253Z,95092.31
2022-11-28T02:02:14.758Z,95276.81
2022-11-28T02:03:34.870Z,95160.69
2022-11-28T02:04:34.279Z,95271.78
2022-11-28T02:05:31.507Z,95231.06
2022-11-28T02:06:33.254Z,95225.91
2022-11-28T02:07:30.142Z,95245.22
2022-11-28T02:08:27.013Z,95246.97
2022-11-28T02:09:23.997Z,95262.09
2022-11-28T02:10:28.063Z,95076.94
2022-11-28T02:11:43.084Z,95237.56
2022-11-28T02:13:18.308Z,95197.94
2022-11-28T02:14:29.929Z,95231.66
2022-11-28T02:15:41.656Z,95236.66
2022-11-28T02:17:16.755Z,95233.25
2022-11-28T02:18:39.586Z,95232.56
2022-11-28T02:19:51.569Z,95227.84
2022-11-28T02:21:11.449Z,95175.56
2022-11-28T02:22:30.570Z,95244.06
2022-11-28T02:23:55.020Z,95183.94
2022-11-28T02:25:35.716Z,95247.75
2022-11-28T02:26:50.914Z,95237.78
2022-11-28T02:28:21.466Z,95233.38
2022-11-28T02:29:48.964Z,95234.03
2022-11-28T02:31:22.814Z,95236.72
2022-11-28T02:32:40.282Z,95235.44
2022-11-28T02:34:04.458Z,95241.84
2022-11-28T02:35:35.104Z,95240.53
2022-11-28T02:36:34.260Z,95233.06
2022-11-28T02:37:59.658Z,95176.44
2022-11-28T02:39:05.460Z,95185.75
2022-11-28T02:40:24.926Z,95234.28
2022-11-28T02:41:24.642Z,95234.06
2022-11-28T02:42:38.903Z,95227.22
2022-11-28T02:44:04.482Z,95255.28
2022-11-28T02:45:15.120Z,95256.53
2022-11-28T02:46:44.898Z,95184.16
2022-11-28T02:47:54.998Z,95258.84
2022-11-28T02:49:08.081Z,95211.44
2022-11-28T02:50:07.612Z,95232.91
2022-11-28T02:51:40.985Z,95231.94
2022-11-28T02:52:45.770Z,95262.03
2022-11-28T02:53:45.919Z,95212.66
2022-11-28T02:54:45.565Z,95179.63
2022-11-28T02:55:44.196Z,95203.56
2022-11-28T02:56:51.434Z,95203.19
2022-11-28T02:57:52.283Z,95254.88
2022-11-28T02:58:49.076Z,95244.25
2022-11-28T02:59:49.252Z,95239.47
2022-11-28T03:00:51.072Z,95243.44
2022-11-28T03:01:48.273Z,95237.09
2022-11-28T03:02:55.894Z,95082.56
2022-11-28T03:03:52.556Z,95197.88
2022-11-28T03:05:13.289Z,95232.28
2022-11-28T03:06:18.837Z,95228.06
2022-11-28T03:07:21.516Z,95234.44
2022-11-28T03:08:42.522Z,95240.53
2022-11-28T03:10:00.838Z,95230.03
2022-11-28T03:11:36.889Z,95259.72
2022-11-28T03:12:56.581Z,95255.41
2022-11-28T03:14:05.830Z,95078.94
2022-11-28T03:15:07.503Z,95248.09
2022-11-28T03:16:25.038Z,95074.47
2022-11-28T03:17:28.361Z,95253.13
2022-11-28T03:18:48.966Z,95270.59
2022-11-28T03:20:42.736Z,95242.13
2022-11-28T03:22:03.127Z,95207.78
2022-11-28T03:23:08.794Z,95242.28
2022-11-28T03:24:22.305Z,95291.72
2022-11-28T03:25:31.035Z,95226.34
2022-11-28T03:26:35.088Z,95243.25
2022-11-28T03:27:38.920Z,95246.47
2022-11-28T03:28:45.403Z,95228.50
2022-11-28T03:29:49.940Z,95246.72
2022-11-28T03:31:08.830Z,95249.13
2022-11-28T03:32:24.627Z,95235.84
2022-11-28T03:33:25.500Z,95125.03
2022-11-28T03:34:28.823Z,95282.28
2022-11-28T03:35:33.334Z,95244.63
2022-11-28T03:36:36.271Z,95123.09
2022-11-28T03:37:40.221Z,95204.53
2022-11-28T03:38:45.444Z,95252.16
2022-11-28T03:39:49.832Z,95250.72
2022-11-28T03:40:53.348Z,95231.63
2022-11-28T03:41:59.698Z,95237.56
2022-11-28T03:43:05.309Z,95155.81
2022-11-28T03:44:08.707Z,95229.78
2022-11-28T03:45:08.213Z,95229.91
2022-11-28T03:46:11.470Z,95254.19
2022-11-28T03:47:10.344Z,95214.72
2022-11-28T03:48:16.222Z,95250.09
2022-11-28T03:49:20.296Z,95208.22
2022-11-28T03:50:23.583Z,95247.75
2022-11-28T03:51:28.917Z,95263.84
2022-11-28T03:52:32.025Z,95266.78
2022-11-28T03:53:42.561Z,95235.56
2022-11-28T03:54:59.486Z,95274.97
2022-11-28T03:56:15.316Z,95246.88
2022-11-28T03:57:30.715Z,95235.59
2022-11-28T03:59:05.775Z,95234.31
2022-11-28T04:00:08.068Z,95212.19
2022-11-28T04:01:07.283Z,95234.31
2022-11-28T04:02:18.862Z,95136.75
2022-11-28T04:03:18.669Z,95226.63
2022-11-28T04:04:21.299Z,95225.84
2022-11-28T04:05:47.854Z,95202.84
2022-11-28T04:07:03.575Z,95212.63
2022-11-28T04:08:16.192Z,95217.69
2022-11-28T04:09:21.856Z,95171.59
2022-11-28T04:10:56.835Z,95179.34
2022-11-28T04:12:22.033Z,95210.34
2022-11-28T04:13:26.488Z,95168.06
2022-11-28T04:14:42.068Z,95242.84
2022-11-28T04:15:39.080Z,95226.09
2022-11-28T04:17:07.336Z,94794.66
2022-11-28T04:18:24.839Z,95220.63
2022-11-28T04:19:41.442Z,95232.09
2022-11-28T04:20:53.721Z,95218.88
2022-11-28T04:21:59.297Z,95249.03
2022-11-28T04:23:02.691Z,95166.28
2022-11-28T04:24:14.568Z,95225.09
2022-11-28T04:25:16.758Z,95252.19
2022-11-28T04:26:34.549Z,95161.22
2022-11-28T04:27:38.858Z,95221.41
2022-11-28T04:28:39.429Z,95231.56
2022-11-28T04:29:44.044Z,95258.09
2022-11-28T04:30:46.211Z,95183.47
2022-11-28T04:31:46.428Z,95240.69
2022-11-28T04:32:55.684Z,95242.81
2022-11-28T04:34:03.732Z,95264.16
2022-11-28T04:35:12.376Z,95185.94
2022-11-28T04:36:18.776Z,95131.28
2022-11-28T04:37:17.916Z,95250.44
2022-11-28T04:38:16.007Z,95079.16
2022-11-28T04:39:18.335Z,95240.09
2022-11-28T04:40:17.956Z,95276.94
2022-11-28T04:41:22.023Z,95205.81
2022-11-28T04:42:43.143Z,95253.00
2022-11-28T04:43:48.467Z,95155.13
2022-11-28T04:44:57.392Z,95243.81
2022-11-28T04:46:04.495Z,95164.78
2022-11-28T04:47:01.701Z,95191.88
2022-11-28T04:47:58.929Z,95254.78
2022-11-28T04:48:55.913Z,94874.41
2022-11-28T04:49:55.076Z,95285.94
2022-11-28T04:51:19.288Z,95322.88
2022-11-28T04:52:29.944Z,95253.44
2022-11-28T04:53:43.040Z,95241.25
2022-11-28T04:55:02.994Z,95225.72
2022-11-28T04:56:08.345Z,95227.28
2022-11-28T04:57:35.707Z,95243.34
2022-11-28T04:58:42.074Z,94998.50
2022-11-28T04:59:41.345Z,95207.16
2022-11-28T05:00:40.781Z,95242.84
2022-11-28T05:01:41.502Z,95187.69
2022-11-28T05:02:41.580Z,95065.28
2022-11-28T05:03:42.736Z,95252.91
2022-11-28T05:04:58.533Z,95240.25
2022-11-28T05:05:55.213Z,95258.53
2022-11-28T05:07:08.219Z,95265.19
2022-11-28T05:08:05.350Z,95269.00
2022-11-28T05:09:02.893Z,95287.78
2022-11-28T05:09:59.804Z,95268.25
2022-11-28T05:10:56.533Z,95160.38
2022-11-28T05:11:53.241Z,95262.72
2022-11-28T05:12:50.034Z,95276.25
2022-11-28T05:13:47.190Z,95228.56
2022-11-28T05:14:44.164Z,95052.69
2022-11-28T05:15:41.143Z,95203.00
2022-11-28T05:16:37.981Z,95248.84
2022-11-28T05:17:40.523Z,95198.69
2022-11-28T05:18:39.209Z,95189.78
2022-11-28T05:19:35.943Z,95282.69
2022-11-28T05:20:33.270Z,95175.06
2022-11-28T05:21:30.067Z,95120.50
2022-11-28T05:22:26.776Z,95270.19
2022-11-28T05:23:23.536Z,95275.66
2022-11-28T05:24:22.464Z,94973.50
2022-11-28T05:25:19.476Z,95206.22
2022-11-28T05:26:21.291Z,95211.50
2022-11-28T05:27:18.228Z,95262.03
2022-11-28T05:28:14.966Z,95256.13
2022-11-28T05:29:11.789Z,95261.94
2022-11-28T05:30:10.608Z,95010.09
2022-11-28T05:31:07.425Z,95254.84
2022-11-28T05:32:04.901Z,95232.22
2022-11-28T05:33:02.186Z,95247.63
2022-11-28T05:33:58.901Z,95211.41
2022-11-28T05:34:55.599Z,95264.63
2022-11-28T05:35:52.301Z,95175.88
2022-11-28T05:36:49.099Z,95252.44
2022-11-28T05:37:45.834Z,95253.91
2022-11-28T05:38:44.205Z,95247.88
2022-11-28T05:39:41.356Z,95257.75
2022-11-28T05:40:44.095Z,95197.22
2022-11-28T05:41:40.858Z,95187.06
2022-11-28T05:42:37.603Z,95242.94
2022-11-28T05:43:34.534Z,95277.16
2022-11-28T05:44:31.689Z,95277.69
2022-11-28T05:45:28.428Z,95267.34
2022-11-28T05:46:26.458Z,95239.34
2022-11-28T05:47:23.994Z,95284.81
2022-11-28T05:48:20.819Z,95267.88
2022-11-28T05:49:17.514Z,95240.84
2022-11-28T05:50:14.436Z,95171.34
2022-11-28T05:51:11.224Z,95257.63
2022-11-28T05:52:08.472Z,95165.22
2022-11-28T05:53:05.264Z,95255.81
2022-11-28T05:54:02.014Z,95258.50
2022-11-28T05:55:05.064Z,95056.06
2022-11-28T05:56:20.490Z,95227.41
2022-11-28T05:57:17.235Z,95134.44
2022-11-28T05:58:16.781Z,95220.88
2022-11-28T05:59:17.182Z,95198.81
2022-11-28T06:00:17.042Z,95235.28
2022-11-28T06:01:17.005Z,95227.34
2022-11-28T06:02:16.439Z,95252.28
2022-11-28T06:03:13.212Z,95231.50
2022-11-28T06:04:12.734Z,95233.09
2022-11-28T06:05:40.400Z,95174.38
2022-11-28T06:06:36.712Z,95038.81
2022-11-28T06:07:37.935Z,95207.34
2022-11-28T06:08:37.265Z,95105.69
2022-11-28T06:09:34.011Z,95243.56
2022-11-28T06:10:36.399Z,95181.81
2022-11-28T06:11:35.655Z,95157.31
2022-11-28T06:12:32.633Z,95234.25
2022-11-28T06:13:31.671Z,95234.25
2022-11-28T06:14:28.491Z,95267.97
2022-11-28T06:15:28.027Z,95234.31
2022-11-28T06:16:29.777Z,95164.66
2022-11-28T06:17:26.546Z,95168.88
2022-11-28T06:18:26.239Z,95169.56
2022-11-28T06:19:27.525Z,95241.19
2022-11-28T06:20:24.582Z,95192.19
2022-11-28T06:21:25.163Z,95184.78
2022-11-28T06:22:24.030Z,95260.59
2022-11-28T06:23:20.878Z,95239.97
2022-11-28T06:24:18.364Z,95243.22
2022-11-28T06:25:15.623Z,95248.59
2022-11-28T06:26:18.330Z,95218.06
2022-11-28T06:27:15.370Z,95209.94
2022-11-28T06:28:12.215Z,95266.72
2022-11-28T06:29:09.011Z,95164.09
2022-11-28T06:30:07.562Z,95218.44
2022-11-28T06:31:14.454Z,95199.88
2022-11-28T06:32:22.435Z,95232.94
2022-11-28T06:33:22.369Z,95239.47
2022-11-28T06:34:19.097Z,95248.22
2022-11-28T06:35:15.855Z,95270.53
2022-11-28T06:36:14.539Z,95252.31
2022-11-28T06:37:12.503Z,95230.06
2022-11-28T06:38:14.045Z,95231.22
2022-11-28T06:39:15.286Z,95234.50
2022-11-28T06:40:16.835Z,95210.75
2022-11-28T06:41:16.919Z,95161.28
2022-11-28T06:42:18.394Z,95238.13
2022-11-28T06:43:15.147Z,95232.38
2022-11-28T06:44:22.340Z,95217.72
2022-11-28T06:45:21.407Z,95231.34
2022-11-28T06:46:24.127Z,95226.00
2022-11-28T06:47:23.381Z,95255.97
2022-11-28T06:48:20.766Z,95236.50
2022-11-28T06:49:20.367Z,95213.66
2022-11-28T06:50:19.740Z,95243.25
2022-11-28T06:51:19.840Z,95182.19
2022-11-28T06:52:18.791Z,95233.81
2022-11-28T06:53:15.590Z,95253.81
2022-11-28T06:54:15.482Z,95248.97
2022-11-28T06:55:12.206Z,95240.28
2022-11-28T06:56:14.633Z,95232.69
2022-11-28T06:57:14.375Z,95198.56
2022-11-28T06:58:14.116Z,95234.53
2022-11-28T06:59:14.577Z,95203.31
2022-11-28T07:00:14.587Z,95252.75
2022-11-28T07:01:20.324Z,95236.41
2022-11-28T07:02:20.069Z,95124.44
2022-11-28T07:03:19.615Z,95260.97
2022-11-28T07:04:18.890Z,95189.06
2022-11-28T07:05:19.064Z,95109.28
2022-11-28T07:06:21.976Z,95215.19
2022-11-28T07:07:24.425Z,95195.25
2022-11-28T07:08:47.271Z,95232.84
2022-11-28T07:09:44.337Z,95230.56
2022-11-28T07:10:46.796Z,95155.03
2022-11-28T07:11:46.219Z,95231.41
2022-11-28T07:12:49.046Z,95230.34
2022-11-28T07:13:52.669Z,95179.63
2022-11-28T07:14:56.701Z,95231.41
2022-11-28T07:16:00.669Z,95237.34
2022-11-28T07:17:02.754Z,95192.22
2022-11-28T07:18:01.889Z,95235.47
2022-11-28T07:19:09.227Z,95167.75
2022-11-28T07:21:43.194Z,95234.47
2022-11-28T07:22:50.101Z,95195.88
2022-11-28T07:23:47.733Z,95135.34
2022-11-28T07:24:44.507Z,95231.09
2022-11-28T07:25:45.582Z,95228.34
2022-11-28T07:26:49.951Z,95189.78
2022-11-28T07:27:52.465Z,95232.88
2022-11-28T07:28:56.224Z,95150.63
2022-11-28T07:29:57.023Z,95225.09
2022-11-28T07:31:21.802Z,95190.41
2022-11-28T07:32:21.008Z,95128.69
2022-11-28T07:33:17.779Z,95227.00
2022-11-28T07:34:18.682Z,94856.91
2022-11-28T07:35:17.944Z,95172.59
2022-11-28T07:36:26.691Z,95111.91
2022-11-28T07:37:23.423Z,95149.41
2022-11-28T07:38:25.013Z,95114.41
2022-11-28T07:39:27.432Z,95136.06
2022-11-28T07:40:29.206Z,95226.53
2022-11-28T07:41:31.858Z,95187.47
2022-11-28T07:42:40.683Z,95227.38
2022-11-28T07:43:44.377Z,95191.44
2022-11-28T07:44:41.102Z,95170.47
2022-11-28T07:46:00.076Z,95107.44
2022-11-28T07:47:03.033Z,95063.31
2022-11-28T07:48:04.729Z,95239.03
2022-11-28T07:49:04.441Z,95229.31
2022-11-28T07:50:01.224Z,95140.72
2022-11-28T07:51:00.442Z,95221.47
2022-11-28T07:51:57.211Z,95230.31
2022-11-28T07:52:56.094Z,95198.53
2022-11-28T07:53:53.846Z,95224.38
2022-11-28T07:54:58.403Z,95146.22
2022-11-28T07:55:55.144Z,95231.66
2022-11-28T07:58:11.520Z,95071.97
2022-11-28T07:59:08.309Z,95246.00
2022-11-28T08:00:05.724Z,95166.47
2022-11-28T08:01:17.831Z,94952.22
2022-11-28T08:02:28.339Z,95228.13
2022-11-28T08:03:28.202Z,95142.63
2022-11-28T08:04:25.015Z,95227.09
2022-11-28T08:05:26.942Z,95168.75
2022-11-28T08:06:28.132Z,95213.09
2022-11-28T08:07:28.929Z,95213.03
2022-11-28T08:08:25.835Z,95212.94
2022-11-28T08:09:23.069Z,95211.66
2022-11-28T08:10:28.891Z,95166.06
2022-11-28T08:11:43.719Z,95215.56
2022-11-28T08:12:46.933Z,95163.41
2022-11-28T08:13:46.651Z,95096.00
2022-11-28T08:14:45.920Z,95125.06
2022-11-28T08:15:48.245Z,95016.53
2022-11-28T08:16:54.317Z,95158.75
2022-11-28T08:17:53.478Z,95214.34
2022-11-28T08:18:52.243Z,95155.53
2022-11-28T08:19:48.989Z,95180.88
2022-11-28T08:20:45.778Z,95025.63
2022-11-28T08:21:48.902Z,95028.50
2022-11-28T08:22:48.774Z,95143.47
2022-11-28T08:23:49.174Z,95106.25
2022-11-28T08:24:45.979Z,95122.16
2022-11-28T08:25:42.752Z,95243.59
2022-11-28T08:26:39.589Z,95217.09
2022-11-28T08:27:36.417Z,95231.41
2022-11-28T08:28:34.121Z,95200.06
2022-11-28T08:29:30.948Z,95223.31
2022-11-28T08:30:28.130Z,95120.06
2022-11-28T08:31:37.243Z,95234.56
2022-11-28T08:32:34.044Z,95220.38
2022-11-28T08:33:30.780Z,95229.38
2022-11-28T08:34:27.523Z,95144.09
2022-11-28T08:35:24.533Z,95190.16
2022-11-28T08:36:21.853Z,95210.78
2022-11-28T08:37:18.591Z,95196.91
2022-11-28T08:38:15.391Z,95230.16
2022-11-28T08:39:27.783Z,95219.56
2022-11-28T08:40:24.745Z,95218.69
2022-11-28T08:41:24.324Z,95222.94
2022-11-28T08:42:21.726Z,95220.00
2022-11-28T08:43:18.529Z,95219.25
2022-11-28T08:44:16.251Z,95232.19
2022-11-28T08:45:13.125Z,95209.38
2022-11-28T08:46:13.253Z,95190.94
2022-11-28T08:47:10.232Z,95144.53
2022-11-28T08:48:07.202Z,95195.13
2022-11-28T08:49:04.706Z,95240.06
2022-11-28T08:50:02.178Z,95182.44
2022-11-28T08:50:58.926Z,95229.88
2022-11-28T08:51:55.752Z,95169.25
2022-11-28T08:52:52.542Z,95174.09
2022-11-28T08:53:52.690Z,95118.59
2022-11-28T08:54:53.325Z,95166.25
2022-11-28T08:55:50.412Z,95166.13
2022-11-28T08:56:48.473Z,95196.94
2022-11-28T08:57:45.203Z,95172.31
2022-11-28T08:58:41.944Z,94756.59
2022-11-28T08:59:38.746Z,95211.38
2022-11-28T09:00:35.899Z,95208.97
2022-11-28T09:01:32.868Z,95190.94
2022-11-28T09:02:29.663Z,95143.63
2022-11-28T09:03:26.640Z,95195.75
2022-11-28T09:04:24.055Z,95193.94
2022-11-28T09:05:20.850Z,95177.19
2022-11-28T09:06:19.017Z,95191.31
2022-11-28T09:07:15.764Z,95243.91
2022-11-28T09:08:13.861Z,95148.16
2022-11-28T09:09:10.754Z,95206.25
2022-11-28T09:10:08.033Z,94996.16
2022-11-28T09:11:08.126Z,95135.38
2022-11-28T09:12:04.929Z,95200.66
2022-11-28T09:13:01.646Z,95198.38
2022-11-28T09:14:00.443Z,95148.63
2022-11-28T09:14:57.129Z,95185.09
2022-11-28T09:15:55.010Z,95202.53
2022-11-28T09:16:52.107Z,95152.78
2022-11-28T09:17:48.904Z,95148.97
2022-11-28T09:18:45.748Z,95167.91
2022-11-28T09:19:43.285Z,95159.34
2022-11-28T09:20:41.187Z,95157.00
2022-11-28T09:21:38.123Z,95117.16
2022-11-28T09:22:34.837Z,95137.81
2022-11-28T09:23:31.951Z,95176.69
2022-11-28T09:24:28.936Z,95125.06
2022-11-28T09:25:25.694Z,95166.44
2022-11-28T09:26:25.355Z,95160.78
2022-11-28T09:27:22.113Z,95104.00
2022-11-28T09:28:18.841Z,95176.59
2022-11-28T09:29:15.578Z,95157.78
2022-11-28T09:30:12.723Z,94941.06
2022-11-28T09:31:09.714Z,95113.00
2022-11-28T09:32:09.191Z,95124.38
2022-11-28T09:33:06.966Z,95175.09
2022-11-28T09:34:04.914Z,95162.44
2022-11-28T09:35:02.035Z,95122.44
2022-11-28T09:35:58.950Z,95124.78
2022-11-28T09:36:59.656Z,95145.06
2022-11-28T09:37:59.194Z,95149.56
2022-11-28T09:38:56.094Z,95163.16
2022-11-28T09:40:11.945Z,95104.78
2022-11-28T09:41:42.821Z,95133.59
2022-11-28T09:42:44.132Z,95149.44
2022-11-28T09:43:49.684Z,95124.78
2022-11-28T09:45:01.489Z,94915.41
2022-11-28T09:46:04.532Z,95138.84
2022-11-28T09:47:10.499Z,95083.53
2022-11-28T09:48:25.227Z,95127.22
2022-11-28T09:49:45.572Z,95072.78
2022-11-28T09:50:44.162Z,94926.19
2022-11-28T09:51:49.375Z,95136.44
2022-11-28T09:52:54.345Z,94773.63
2022-11-28T09:54:11.604Z,95133.31
2022-11-28T09:55:57.886Z,95131.47
2022-11-28T09:56:57.124Z,95123.47
2022-11-28T09:57:54.679Z,95039.56
2022-11-28T09:58:57.909Z,95071.16
2022-11-28T09:59:54.760Z,95052.03
2022-11-28T10:01:11.050Z,95080.56
2022-11-28T10:02:26.047Z,95122.91
2022-11-28T10:03:36.224Z,94950.44
2022-11-28T10:04:42.721Z,95121.88
2022-11-28T10:05:58.886Z,95154.50
2022-11-28T10:07:01.506Z,95112.31
2022-11-28T10:08:16.052Z,95109.25
2022-11-28T10:09:21.475Z,95112.34
2022-11-28T10:10:48.956Z,95049.19
2022-11-28T10:11:45.692Z,95111.16
2022-11-28T10:12:52.877Z,94955.88
2022-11-28T10:14:08.787Z,95109.41
2022-11-28T10:15:20.805Z,95106.13
2022-11-28T10:16:54.970Z,95101.44
2022-11-28T10:18:19.162Z,95107.50
2022-11-28T10:19:52.848Z,95055.84
2022-11-28T10:20:47.221Z,95096.75
2022-11-28T10:21:59.248Z,95024.91
2022-11-28T10:23:25.232Z,95032.78
2022-11-28T10:25:00.546Z,95072.41
2022-11-28T10:26:13.007Z,95037.44
2022-11-28T10:27:23.895Z,95007.19
2022-11-28T10:28:41.347Z,95003.91
2022-11-28T10:29:58.706Z,95050.56
2022-11-28T10:31:53.996Z,95115.94
2022-11-28T10:33:33.025Z,95089.41
2022-11-28T10:34:48.864Z,95082.38
2022-11-28T10:36:04.420Z,95003.44
2022-11-28T10:37:18.056Z,95025.13
2022-11-28T10:38:25.783Z,95040.34
2022-11-28T10:39:26.631Z,95064.09
2022-11-28T10:41:18.101Z,94953.94
2022-11-28T10:42:28.637Z,95044.91
2022-11-28T10:44:02.014Z,95069.78
2022-11-28T10:45:22.538Z,95073.91
2022-11-28T10:46:22.208Z,95009.34
2022-11-28T10:47:37.330Z,95072.31
2022-11-28T10:48:50.675Z,95032.19
2022-11-28T10:50:19.426Z,95011.63
2022-11-28T10:51:48.296Z,95069.47
2022-11-28T10:52:59.052Z,94907.47
2022-11-28T10:54:07.588Z,95070.22
2022-11-28T10:55:34.379Z,95000.28
2022-11-28T10:57:13.188Z,95024.09
2022-11-28T10:58:35.237Z,94989.59
2022-11-28T10:59:53.027Z,95047.28
2022-11-28T11:01:00.930Z,94995.22
2022-11-28T11:02:25.523Z,95073.28
2022-11-28T11:03:40.519Z,94920.69
2022-11-28T11:04:44.200Z,94972.34
2022-11-28T11:05:46.859Z,94982.63
2022-11-28T11:07:19.090Z,95059.38
2022-11-28T11:08:30.626Z,95072.31
2022-11-28T11:09:27.530Z,95059.91
2022-11-28T11:10:59.306Z,95016.91
2022-11-28T11:12:01.063Z,94948.91
2022-11-28T11:12:59.230Z,95019.84
2022-11-28T11:13:59.145Z,95039.97
2022-11-28T11:15:20.565Z,95060.00
2022-11-28T11:16:22.874Z,95028.03
2022-11-28T11:17:39.253Z,94999.91
2022-11-28T11:18:56.359Z,94988.84
2022-11-28T11:19:53.928Z,94983.09
2022-11-28T11:21:09.215Z,95044.31
2022-11-28T11:22:31.034Z,95029.28
2022-11-28T11:23:43.140Z,94908.13
2022-11-28T11:25:20.294Z,95043.09
2022-11-28T11:26:36.866Z,94992.50
2022-11-28T11:27:37.466Z,95038.41
2022-11-28T11:28:47.210Z,94957.22
2022-11-28T11:29:50.236Z,95038.28
2022-11-28T11:31:03.094Z,95039.97
2022-11-28T11:32:03.656Z,94964.09
2022-11-28T11:33:09.078Z,95039.22
2022-11-28T11:34:15.525Z,95023.44
2022-11-28T11:35:41.868Z,94876.19
2022-11-28T11:36:38.661Z,95059.63
2022-11-28T11:37:39.131Z,95034.25
2022-11-28T11:38:37.938Z,95036.13
2022-11-28T11:39:48.705Z,94933.47
2022-11-28T11:40:45.597Z,94979.94
2022-11-28T11:41:45.485Z,95021.69
2022-11-28T11:42:58.862Z,95037.81
2022-11-28T11:43:56.952Z,95041.84
2022-11-28T11:44:55.308Z,95019.44
2022-11-28T11:46:12.362Z,95012.28
2022-11-28T11:47:15.973Z,95013.72
2022-11-28T11:48:15.879Z,94994.38
2022-11-28T11:49:48.276Z,94996.47
2022-11-28T11:50:56.672Z,95048.19
2022-11-28T11:52:00.183Z,95036.56
2022-11-28T11:53:10.434Z,94954.19
2022-11-28T11:54:12.952Z,95016.19
2022-11-28T11:55:16.565Z,95014.72
2022-11-28T11:56:15.531Z,94927.59
2022-11-28T11:57:32.406Z,94936.06
2022-11-28T11:58:49.796Z,94979.78
2022-11-28T11:59:54.463Z,94976.91
2022-11-28T12:00:57.611Z,95027.28
2022-11-28T12:02:26.537Z,95021.81
2022-11-28T12:04:23.625Z,95017.88
2022-11-28T12:05:46.415Z,95008.38
2022-11-28T12:06:52.572Z,94964.06
2022-11-28T12:08:02.763Z,95016.59
2022-11-28T12:09:08.756Z,95013.34
2022-11-28T12:10:20.211Z,95022.13
2022-11-28T12:11:23.556Z,94971.75
2022-11-28T12:12:27.623Z,95026.13
2022-11-28T12:13:25.064Z,94978.22
2022-11-28T12:14:35.154Z,95041.72
2022-11-28T12:16:06.029Z,94986.63
2022-11-28T12:17:47.351Z,95017.09
2022-11-28T12:19:13.009Z,95009.47
2022-11-28T12:20:39.820Z,95013.63
2022-11-28T12:22:04.481Z,95001.84
2022-11-28T12:23:50.992Z,95021.50
2022-11-28T12:24:52.287Z,95010.72
2022-11-28T12:25:58.834Z,94997.06
2022-11-28T12:27:04.335Z,95013.22
2022-11-28T12:28:22.265Z,95009.53
2022-11-28T12:29:42.010Z,94967.75
2022-11-28T12:30:54.223Z,94987.38
2022-11-28T12:32:36.099Z,95006.34
2022-11-28T12:33:54.907Z,94970.69
2022-11-28T12:35:19.161Z,95003.81
2022-11-28T12:36:18.552Z,95002.78
2022-11-28T12:37:23.205Z,95002.00
2022-11-28T12:38:59.969Z,95002.06
2022-11-28T12:40:47.899Z,94980.38
2022-11-28T12:41:48.775Z,95008.47
2022-11-28T12:43:16.054Z,95005.47
2022-11-28T12:44:51.331Z,95007.19